Time;durP1;ratioP1;P1;durP2;ratioP2;P2;SDS_P1;SDS_P2;PMS_P1;PMS_P2;Temp;Humidity;BMP_temperature;BMP_pressure;BME280_temperature;BME280_humidity;BME280_pressure;Samples;Min_cycle;Max_cycle;Signal;HPM_P1;HPM_P2
2024/01/13 00:01:58;;;;;;;18.25;9.38;;;2.70;65.90;;;;;;2277909;55;20948;-65
2024/01/13 00:04:25;;;;;;;20.20;9.02;;;2.70;65.90;;;;;;2276890;55;20956;-65
2024/01/13 00:06:51;;;;;;;21.75;10.40;;;2.70;65.90;;;;;;2277328;55;20980;-66
2024/01/13 00:09:17;;;;;;;21.40;10.30;;;2.70;65.90;;;;;;2508849;54;20948;-66
2024/01/13 00:11:44;;;;;;;26.98;11.65;;;2.70;65.90;;;;;;2509350;54;21079;-67
2024/01/13 00:14:10;;;;;;;22.13;10.63;;;2.70;65.90;;;;;;2267598;55;20998;-65
2024/01/13 00:16:36;;;;;;;22.15;9.70;;;2.70;65.90;;;;;;2509106;53;21480;-65
2024/01/13 00:19:02;;;;;;;21.75;10.50;;;2.70;65.90;;;;;;2283042;55;21120;-65
2024/01/13 00:21:29;;;;;;;21.70;10.45;;;2.70;65.90;;;;;;2276567;55;20971;-65
2024/01/13 00:23:56;;;;;;;21.30;10.32;;;2.70;65.90;;;;;;2277343;55;21016;-67
2024/01/13 00:26:22;;;;;;;23.15;11.00;;;2.80;66.10;;;;;;2509385;55;21023;-67
2024/01/13 00:28:49;;;;;;;23.20;11.27;;;2.70;65.90;;;;;;2509309;54;20972;-67
2024/01/13 00:31:15;;;;;;;19.55;9.68;;;2.70;65.90;;;;;;2509592;54;20952;-66
2024/01/13 00:33:43;;;;;;;19.65;9.68;;;2.70;65.90;;;;;;2277739;56;21019;-67
2024/01/13 00:36:10;;;;;;;16.02;8.60;;;2.70;65.80;;;;;;2277170;55;20972;-67
2024/01/13 00:38:37;;;;;;;22.52;10.00;;;2.70;65.80;;;;;;2276425;56;25358;-66
2024/01/13 00:41:07;;;;;;;16.05;8.18;;;2.70;65.80;;;;;;2276788;55;21902;-67
2024/01/13 00:43:36;;;;;;;18.08;8.38;;;2.70;65.90;;;;;;2277612;55;21069;-64
2024/01/13 00:46:02;;;;;;;17.40;8.40;;;2.70;65.90;;;;;;2277110;55;20972;-67
2024/01/13 00:48:35;;;;;;;16.52;8.40;;;2.70;65.90;;;;;;2508304;55;20963;-66
2024/01/13 00:51:04;;;;;;;18.58;8.23;;;2.70;65.90;;;;;;2277762;55;21004;-66
2024/01/13 00:53:31;;;;;;;18.08;8.27;;;2.70;65.90;;;;;;2508809;55;21020;-67
2024/01/13 00:55:58;;;;;;;20.35;9.73;;;2.70;65.90;;;;;;2510779;54;21030;-68
2024/01/13 00:58:25;;;;;;;22.55;10.38;;;2.70;66.00;;;;;;2279146;55;20944;-65
2024/01/13 01:00:59;;;;;;;21.48;10.30;;;2.70;66.00;;;;;;2277212;55;21017;-67
2024/01/13 01:03:26;;;;;;;26.05;10.73;;;2.70;65.90;;;;;;2281974;55;20966;-65
2024/01/13 01:05:53;;;;;;;24.15;10.88;;;2.70;65.90;;;;;;2282516;56;21049;-66
2024/01/13 01:08:19;;;;;;;22.52;11.35;;;2.70;65.90;;;;;;2279353;55;20995;-65
2024/01/13 01:10:48;;;;;;;24.58;11.12;;;2.70;65.90;;;;;;2512469;53;20982;-65
2024/01/13 01:13:14;;;;;;;22.08;11.07;;;2.70;65.90;;;;;;2510380;54;21076;-66
2024/01/13 01:15:41;;;;;;;25.33;10.95;;;2.70;65.80;;;;;;2276648;55;21102;-65
2024/01/13 01:18:08;;;;;;;20.58;10.63;;;2.60;65.60;;;;;;2277419;55;21429;-67
2024/01/13 01:20:37;;;;;;;20.37;10.15;;;2.60;65.60;;;;;;2276872;55;21087;-66
2024/01/13 01:23:03;;;;;;;25.08;11.00;;;2.70;65.70;;;;;;2506663;54;20997;-66
2024/01/13 01:25:30;;;;;;;20.33;10.18;;;2.60;65.60;;;;;;2509415;54;21026;-65
2024/01/13 01:27:57;;;;;;;20.98;10.75;;;2.60;65.60;;;;;;2282531;54;20957;-65
2024/01/13 01:30:24;;;;;;;22.98;10.52;;;2.60;65.60;;;;;;2276568;54;20960;-65
2024/01/13 01:32:56;;;;;;;21.00;10.43;;;2.60;66.30;;;;;;2277667;55;20975;-65
2024/01/13 01:35:22;;;;;;;18.87;9.00;;;2.60;65.60;;;;;;2277262;56;21027;-65
2024/01/13 01:37:48;;;;;;;21.70;10.52;;;2.50;65.50;;;;;;2275783;56;20964;-66
2024/01/13 01:40:15;;;;;;;22.35;10.10;;;2.60;65.70;;;;;;2277158;56;20952;-65
2024/01/13 01:42:42;;;;;;;23.75;9.77;;;2.50;65.60;;;;;;2283402;54;21407;-65
2024/01/13 01:45:09;;;;;;;21.23;8.80;;;2.50;65.70;;;;;;2277592;56;21019;-67
2024/01/13 01:47:35;;;;;;;20.90;10.00;;;2.60;65.80;;;;;;2276475;56;21389;-66
2024/01/13 01:50:05;;;;;;;23.62;10.45;;;2.60;65.90;;;;;;2508751;54;21067;-67
2024/01/13 01:52:31;;;;;;;19.08;8.75;;;2.60;65.90;;;;;;2513147;53;21771;-66
2024/01/13 01:54:58;;;;;;;19.92;8.90;;;2.50;65.80;;;;;;2277585;55;21040;-67
2024/01/13 01:57:27;;;;;;;18.27;8.20;;;2.50;65.70;;;;;;2509487;54;20972;-66
2024/01/13 01:59:54;;;;;;;19.45;8.82;;;2.60;65.80;;;;;;2510061;54;20984;-66
2024/01/13 02:02:21;;;;;;;17.73;8.15;;;2.60;65.70;;;;;;2277569;56;21020;-65
2024/01/13 02:04:48;;;;;;;17.10;8.05;;;2.60;65.70;;;;;;2296927;55;21006;-66
2024/01/13 02:07:14;;;;;;;17.23;8.23;;;2.50;65.70;;;;;;2285251;54;21091;-66
2024/01/13 02:09:41;;;;;;;18.85;8.73;;;2.50;65.70;;;;;;2276990;55;21035;-65
2024/01/13 02:12:07;;;;;;;16.42;7.78;;;2.50;65.60;;;;;;2277063;55;20969;-66
2024/01/13 02:14:36;;;;;;;19.23;8.43;;;2.50;65.60;;;;;;2277043;55;21343;-65
2024/01/13 02:17:03;;;;;;;20.60;9.20;;;2.50;65.70;;;;;;2509197;54;21012;-67
2024/01/13 02:19:32;;;;;;;22.23;10.65;;;2.40;65.40;;;;;;2276996;55;21388;-66
2024/01/13 02:21:59;;;;;;;22.17;9.95;;;2.40;65.30;;;;;;2512903;54;21030;-67
2024/01/13 02:24:25;;;;;;;24.02;10.23;;;2.40;65.40;;;;;;2277005;56;20948;-66
2024/01/13 02:26:52;;;;;;;23.10;11.02;;;2.50;65.60;;;;;;2509103;54;20921;-67
2024/01/13 02:29:18;;;;;;;24.90;11.32;;;2.40;65.50;;;;;;2508998;54;20940;-67
2024/01/13 02:31:44;;;;;;;28.67;12.30;;;2.40;65.60;;;;;;2275451;56;21492;-67
2024/01/13 02:34:11;;;;;;;29.37;12.73;;;2.40;65.70;;;;;;2276505;56;21024;-64
2024/01/13 02:36:37;;;;;;;25.27;11.88;;;2.30;65.70;;;;;;2276521;55;21417;-65
2024/01/13 02:39:04;;;;;;;22.45;10.60;;;2.40;65.90;;;;;;2276329;55;20972;-66
2024/01/13 02:41:30;;;;;;;21.92;10.30;;;2.40;65.90;;;;;;2276742;56;21481;-67
2024/01/13 02:43:57;;;;;;;21.48;9.88;;;2.50;66.00;;;;;;2276524;56;21044;-67
2024/01/13 02:46:24;;;;;;;21.10;9.65;;;2.40;65.80;;;;;;2277391;55;21008;-64
2024/01/13 02:48:53;;;;;;;19.55;8.82;;;2.50;65.90;;;;;;2276987;55;20920;-66
2024/01/13 02:51:20;;;;;;;19.25;9.38;;;2.50;65.80;;;;;;2510963;54;21013;-66
2024/01/13 02:53:46;;;;;;;20.58;9.48;;;2.50;65.80;;;;;;2281438;54;21089;-65
2024/01/13 02:56:13;;;;;;;19.33;8.43;;;2.50;65.80;;;;;;2509712;54;20932;-67
2024/01/13 02:58:40;;;;;;;18.73;8.07;;;2.50;65.70;;;;;;2281616;55;20997;-66
2024/01/13 03:01:07;;;;;;;21.00;8.70;;;2.50;65.70;;;;;;2283797;55;21560;-66
2024/01/13 03:03:34;;;;;;;19.65;9.02;;;2.50;65.70;;;;;;2511365;54;20944;-66
2024/01/13 03:06:02;;;;;;;18.00;8.82;;;2.50;65.60;;;;;;2509461;54;21292;-66
2024/01/13 03:08:28;;;;;;;17.98;7.82;;;2.40;65.40;;;;;;2285669;55;21032;-67
2024/01/13 03:10:56;;;;;;;18.85;8.32;;;2.40;65.40;;;;;;2279356;55;21043;-67
2024/01/13 03:13:23;;;;;;;15.43;7.65;;;2.40;65.30;;;;;;2278386;55;21720;-67
2024/01/13 03:15:50;;;;;;;20.80;8.75;;;2.40;65.40;;;;;;2283163;55;21572;-66
2024/01/13 03:18:16;;;;;;;20.20;8.95;;;2.40;65.40;;;;;;2509880;54;20944;-65
2024/01/13 03:20:44;;;;;;;20.27;8.43;;;2.40;65.40;;;;;;2279290;55;21438;-67
2024/01/13 03:23:10;;;;;;;18.58;8.43;;;2.40;65.30;;;;;;2281930;55;20978;-65
2024/01/13 03:25:36;;;;;;;16.37;7.70;;;2.30;65.20;;;;;;2511693;54;21083;-66
2024/01/13 03:28:03;;;;;;;14.95;7.05;;;2.30;65.20;;;;;;2509789;55;21008;-67
2024/01/13 03:30:30;;;;;;;18.90;8.43;;;2.30;65.30;;;;;;2509960;54;20980;-67
2024/01/13 03:32:57;;;;;;;18.33;7.70;;;2.30;65.40;;;;;;2277431;56;20960;-66
2024/01/13 03:35:23;;;;;;;18.23;8.52;;;2.30;65.40;;;;;;2277654;55;21051;-65
2024/01/13 03:37:49;;;;;;;16.58;7.93;;;2.30;65.50;;;;;;2277188;55;20948;-65
2024/01/13 03:40:16;;;;;;;18.42;7.72;;;2.20;65.40;;;;;;2277517;56;21416;-65
2024/01/13 03:42:45;;;;;;;18.33;7.60;;;2.20;65.40;;;;;;2277231;56;21035;-66
2024/01/13 03:45:20;;;;;;;19.52;8.40;;;2.20;65.50;;;;;;2283353;54;21053;-66
2024/01/13 03:47:47;;;;;;;19.50;9.07;;;2.20;65.40;;;;;;2277523;55;21039;-65
2024/01/13 03:50:13;;;;;;;15.68;7.15;;;2.20;65.40;;;;;;2513062;53;20966;-67
2024/01/13 03:52:39;;;;;;;18.23;7.78;;;2.20;65.50;;;;;;2277092;55;20954;-66
2024/01/13 03:55:07;;;;;;;18.75;7.50;;;2.20;65.50;;;;;;2282636;54;20930;-66
2024/01/13 03:57:33;;;;;;;16.77;8.02;;;2.20;65.50;;;;;;2510566;53;20963;-65
2024/01/13 03:59:59;;;;;;;20.40;8.57;;;2.20;65.50;;;;;;2277330;55;21008;-67
2024/01/13 04:02:27;;;;;;;19.87;8.38;;;2.20;65.50;;;;;;2281650;56;20948;-66
2024/01/13 04:04:55;;;;;;;18.27;8.48;;;2.10;65.30;;;;;;2279490;54;20980;-67
2024/01/13 04:07:22;;;;;;;18.73;7.85;;;2.20;65.30;;;;;;2277806;56;20955;-65
2024/01/13 04:09:50;;;;;;;18.50;8.05;;;2.10;65.20;;;;;;2276831;56;21240;-64
2024/01/13 04:12:17;;;;;;;15.48;6.90;;;2.10;65.30;;;;;;2509578;54;21309;-66
2024/01/13 04:14:45;;;;;;;21.65;8.23;;;2.10;65.40;;;;;;2276821;56;21036;-65
2024/01/13 04:17:11;;;;;;;18.55;7.05;;;2.10;65.60;;;;;;2283506;55;21057;-65
2024/01/13 04:19:37;;;;;;;16.45;7.15;;;2.10;65.70;;;;;;2277009;55;21004;-65
2024/01/13 04:22:04;;;;;;;17.23;7.85;;;2.10;65.80;;;;;;2509180;54;21230;-65
2024/01/13 04:24:31;;;;;;;21.80;10.10;;;2.10;65.90;;;;;;2276961;55;20988;-67
2024/01/13 04:26:57;;;;;;;19.62;8.65;;;2.10;65.90;;;;;;2281269;54;21002;-67
2024/01/13 04:29:23;;;;;;;15.82;7.90;;;2.10;66.00;;;;;;2523484;53;20949;-66
2024/01/13 04:31:50;;;;;;;18.50;7.62;;;2.10;66.00;;;;;;2276590;55;21256;-66
2024/01/13 04:34:18;;;;;;;20.02;8.50;;;2.10;65.90;;;;;;2277524;55;20920;-67
2024/01/13 04:36:45;;;;;;;17.85;8.43;;;2.10;65.90;;;;;;2276773;55;21057;-67
2024/01/13 04:39:13;;;;;;;20.05;8.52;;;2.20;65.90;;;;;;2276594;55;21012;-66
2024/01/13 04:41:41;;;;;;;19.42;8.75;;;2.20;65.90;;;;;;2277726;55;20968;-66
2024/01/13 04:44:08;;;;;;;18.73;8.15;;;2.20;65.80;;;;;;2262367;56;21021;-67
2024/01/13 04:46:35;;;;;;;18.65;7.80;;;2.10;65.60;;;;;;2277037;55;20952;-67
2024/01/13 04:49:01;;;;;;;19.15;8.23;;;2.20;65.60;;;;;;2276377;55;22216;-65
2024/01/13 04:51:28;;;;;;;20.48;9.00;;;2.10;65.40;;;;;;2277410;55;20952;-65
2024/01/13 04:53:56;;;;;;;23.17;9.75;;;2.10;65.50;;;;;;2277307;56;21767;-65
2024/01/13 04:56:23;;;;;;;20.60;8.52;;;2.10;65.60;;;;;;2277404;55;21410;-65
2024/01/13 04:58:49;;;;;;;19.73;9.23;;;2.10;65.60;;;;;;2277209;55;21623;-65
2024/01/13 05:01:17;;;;;;;21.67;9.00;;;2.10;65.70;;;;;;2509910;54;20956;-65
2024/01/13 05:03:43;;;;;;;20.12;8.73;;;2.10;65.70;;;;;;2508730;54;20952;-65
2024/01/13 05:06:10;;;;;;;19.62;8.82;;;2.10;65.70;;;;;;2278003;55;20996;-66
2024/01/13 05:08:36;;;;;;;21.35;9.07;;;2.10;65.80;;;;;;2277409;56;20940;-66
2024/01/13 05:11:03;;;;;;;22.33;8.60;;;2.10;65.80;;;;;;2277042;55;21007;-67
2024/01/13 05:13:29;;;;;;;20.73;8.32;;;2.10;65.90;;;;;;2509755;54;21028;-65
2024/01/13 05:15:55;;;;;;;19.15;8.35;;;2.10;65.90;;;;;;2276982;55;21449;-66
2024/01/13 05:18:22;;;;;;;17.65;8.40;;;2.10;65.90;;;;;;2277303;56;21393;-64
2024/01/13 05:20:48;;;;;;;19.17;8.57;;;2.20;66.00;;;;;;2277186;55;21204;-66
2024/01/13 05:23:15;;;;;;;25.55;9.02;;;2.20;66.00;;;;;;2276772;55;21059;-65
2024/01/13 05:25:41;;;;;;;22.40;10.30;;;2.10;65.90;;;;;;2280685;55;20978;-66
2024/01/13 05:28:08;;;;;;;23.35;10.20;;;2.20;66.00;;;;;;2283575;55;21495;-67
2024/01/13 05:30:35;;;;;;;23.02;10.27;;;2.20;66.00;;;;;;2280844;55;21055;-66
2024/01/13 05:33:01;;;;;;;25.30;11.20;;;2.20;65.90;;;;;;2277836;55;21019;-65
2024/01/13 05:35:29;;;;;;;27.62;12.15;;;2.20;65.90;;;;;;2277438;56;21008;-65
2024/01/13 05:37:56;;;;;;;25.85;11.02;;;2.20;65.90;;;;;;2277232;56;21745;-67
2024/01/13 05:40:24;;;;;;;26.10;10.98;;;2.20;65.90;;;;;;2277333;55;20944;-64
2024/01/13 05:42:50;;;;;;;24.92;10.85;;;2.20;65.90;;;;;;2276949;55;21039;-65
2024/01/13 05:45:17;;;;;;;24.90;10.98;;;2.20;65.90;;;;;;2282920;55;21606;-67
2024/01/13 05:47:43;;;;;;;22.25;10.07;;;2.20;65.90;;;;;;2278417;55;21008;-65
2024/01/13 05:50:09;;;;;;;26.02;10.98;;;2.20;66.60;;;;;;2508887;54;20952;-66
2024/01/13 05:52:36;;;;;;;24.10;10.98;;;2.20;65.90;;;;;;2277918;55;20992;-65
2024/01/13 05:55:06;;;;;;;21.85;9.75;;;2.20;65.90;;;;;;2508216;54;21016;-65
2024/01/13 05:57:32;;;;;;;18.00;8.73;;;2.20;65.90;;;;;;2281665;56;21029;-66
2024/01/13 05:59:59;;;;;;;16.80;7.40;;;2.20;65.80;;;;;;2279145;55;21039;-65
2024/01/13 06:02:25;;;;;;;21.52;8.20;;;2.20;65.80;;;;;;2277311;56;21008;-66
2024/01/13 06:04:56;;;;;;;22.58;9.27;;;2.20;65.70;;;;;;2277260;55;20956;-66
2024/01/13 06:07:22;;;;;;;21.90;9.77;;;2.20;65.70;;;;;;2509259;54;21004;-66
2024/01/13 06:09:50;;;;;;;20.12;8.50;;;2.20;65.80;;;;;;2508948;54;20920;-68
2024/01/13 06:12:17;;;;;;;20.23;9.05;;;2.20;65.80;;;;;;2277762;55;21755;-66
2024/01/13 06:14:43;;;;;;;22.00;9.60;;;2.20;65.80;;;;;;2277647;56;20979;-66
2024/01/13 06:17:10;;;;;;;22.05;9.48;;;2.20;65.80;;;;;;2281334;55;21037;-65
2024/01/13 06:19:36;;;;;;;19.30;8.55;;;2.20;65.80;;;;;;2511608;54;21332;-66
2024/01/13 06:22:03;;;;;;;19.48;9.15;;;2.20;65.70;;;;;;2276878;55;20998;-67
2024/01/13 06:24:31;;;;;;;20.00;8.60;;;2.20;65.60;;;;;;2277024;55;20964;-66
2024/01/13 06:26:58;;;;;;;21.73;8.80;;;2.20;65.60;;;;;;2277016;56;20960;-67
2024/01/13 06:29:25;;;;;;;18.70;7.93;;;2.20;65.60;;;;;;2511728;54;20970;-66
2024/01/13 06:31:53;;;;;;;17.37;7.45;;;2.20;65.50;;;;;;2279316;55;20948;-67
2024/01/13 06:34:22;;;;;;;16.08;7.22;;;2.10;65.30;;;;;;2510295;54;20987;-66
2024/01/13 06:36:48;;;;;;;17.73;6.97;;;2.10;65.30;;;;;;2283814;55;21010;-66
2024/01/13 06:39:14;;;;;;;18.33;7.72;;;2.10;65.40;;;;;;2278342;55;20964;-67
2024/01/13 06:41:41;;;;;;;16.85;8.27;;;2.10;65.50;;;;;;2510411;55;21877;-67
2024/01/13 06:44:07;;;;;;;15.23;7.65;;;2.10;65.40;;;;;;2510006;54;21048;-65
2024/01/13 06:46:35;;;;;;;17.00;7.72;;;2.10;65.40;;;;;;2278174;55;21103;-65
2024/01/13 06:49:02;;;;;;;19.45;8.13;;;2.10;65.50;;;;;;2509263;54;20972;-66
2024/01/13 06:51:29;;;;;;;19.23;8.02;;;2.10;65.50;;;;;;2513541;53;21016;-67
2024/01/13 06:53:55;;;;;;;15.80;7.10;;;2.10;65.60;;;;;;2509634;54;21772;-66
2024/01/13 06:56:21;;;;;;;17.75;7.43;;;2.10;65.70;;;;;;2513133;53;21472;-65
2024/01/13 06:58:48;;;;;;;17.25;7.82;;;2.10;65.70;;;;;;2509968;54;20944;-66
2024/01/13 07:01:14;;;;;;;20.88;8.00;;;2.00;65.70;;;;;;2278134;55;21055;-65
2024/01/13 07:03:41;;;;;;;17.83;6.95;;;2.10;65.80;;;;;;2510123;54;20967;-66
2024/01/13 07:06:08;;;;;;;23.90;9.10;;;2.00;65.60;;;;;;2509955;54;20928;-67
2024/01/13 07:08:36;;;;;;;21.30;9.15;;;2.10;65.80;;;;;;2278052;56;21020;-65
2024/01/13 07:11:11;;;;;;;23.05;9.20;;;2.00;65.70;;;;;;2509630;55;20991;-66
2024/01/13 07:13:37;;;;;;;22.90;9.95;;;2.10;65.80;;;;;;2277909;56;20984;-65
2024/01/13 07:16:04;;;;;;;26.33;11.85;;;2.10;65.90;;;;;;2276912;55;20940;-66
2024/01/13 07:18:30;;;;;;;26.20;12.65;;;2.10;65.90;;;;;;2277963;56;20984;-67
2024/01/13 07:20:57;;;;;;;28.60;13.18;;;2.10;65.90;;;;;;2510020;54;20944;-65
2024/01/13 07:23:23;;;;;;;29.20;13.35;;;2.10;65.90;;;;;;2514345;53;21003;-65
2024/01/13 07:25:49;;;;;;;33.90;14.55;;;2.10;65.90;;;;;;2277903;55;21461;-67
2024/01/13 07:28:16;;;;;;;29.75;13.98;;;2.10;65.90;;;;;;2509923;55;20971;-66
2024/01/13 07:30:42;;;;;;;27.23;12.00;;;2.10;65.90;;;;;;2510465;54;21033;-65
2024/01/13 07:33:09;;;;;;;26.37;12.07;;;2.10;65.90;;;;;;2508969;54;20961;-66
2024/01/13 07:35:36;;;;;;;24.73;11.00;;;2.10;65.90;;;;;;2278201;55;20944;-67
2024/01/13 07:38:02;;;;;;;23.75;10.50;;;2.10;65.90;;;;;;2509472;55;21043;-65
2024/01/13 07:40:29;;;;;;;27.15;12.70;;;2.20;66.00;;;;;;2509929;55;21023;-67
2024/01/13 07:42:55;;;;;;;26.30;12.07;;;2.10;65.90;;;;;;2265171;56;21535;-65
2024/01/13 07:45:22;;;;;;;27.02;12.48;;;2.20;66.00;;;;;;2279975;55;21008;-66
2024/01/13 07:47:49;;;;;;;29.30;12.20;;;2.20;66.10;;;;;;2281849;55;20996;-65
2024/01/13 07:50:17;;;;;;;26.00;11.60;;;2.20;66.10;;;;;;2276992;56;21632;-66
2024/01/13 07:52:43;;;;;;;28.50;11.90;;;2.20;66.10;;;;;;2510425;55;20988;-65
2024/01/13 07:55:12;;;;;;;29.98;12.25;;;2.20;66.00;;;;;;2277469;55;21036;-67
2024/01/13 07:57:39;;;;;;;33.47;14.25;;;2.20;66.00;;;;;;2277811;55;20996;-66
2024/01/13 08:00:11;;;;;;;34.70;14.05;;;2.20;66.00;;;;;;2509265;54;21044;-66
2024/01/13 08:02:38;;;;;;;27.02;12.13;;;2.20;66.00;;;;;;2277144;55;20984;-65
2024/01/13 08:05:05;;;;;;;36.65;16.10;;;2.20;65.90;;;;;;2276911;56;20964;-65
2024/01/13 08:07:31;;;;;;;35.30;15.13;;;2.20;66.00;;;;;;2277611;55;20949;-66
2024/01/13 08:09:58;;;;;;;28.27;13.25;;;2.20;66.00;;;;;;2277253;56;20949;-65
2024/01/13 08:12:25;;;;;;;41.28;19.20;;;2.20;66.00;;;;;;2277209;55;21018;-65
2024/01/13 08:14:51;;;;;;;36.47;15.45;;;2.20;65.90;;;;;;2509296;54;20955;-67
2024/01/13 08:17:18;;;;;;;39.28;16.98;;;2.20;65.80;;;;;;2509001;55;20961;-66
2024/01/13 08:19:46;;;;;;;36.60;17.02;;;2.20;65.70;;;;;;2277681;56;21067;-65
2024/01/13 08:22:14;;;;;;;29.87;14.20;;;2.20;65.70;;;;;;2277211;55;21331;-65
2024/01/13 08:24:43;;;;;;;30.92;14.25;;;2.20;65.60;;;;;;2278446;55;21032;-65
2024/01/13 08:27:10;;;;;;;22.65;10.43;;;2.20;65.70;;;;;;2275869;55;21012;-66
2024/01/13 08:29:36;;;;;;;23.90;10.52;;;2.20;65.70;;;;;;2277315;55;21012;-66
2024/01/13 08:32:03;;;;;;;21.98;10.63;;;2.20;65.80;;;;;;2509239;54;21812;-67
2024/01/13 08:34:29;;;;;;;21.73;9.75;;;2.20;65.90;;;;;;2267847;55;21271;-66
2024/01/13 08:36:56;;;;;;;24.55;10.75;;;2.20;65.90;;;;;;2510288;54;21075;-66
2024/01/13 08:39:22;;;;;;;27.92;12.00;;;2.20;66.00;;;;;;2509783;55;20928;-67
2024/01/13 08:41:50;;;;;;;23.90;11.88;;;2.20;65.90;;;;;;2277723;56;20995;-67
2024/01/13 08:44:17;;;;;;;28.85;13.30;;;2.20;65.80;;;;;;2277284;55;20992;-65
2024/01/13 08:46:43;;;;;;;32.72;14.05;;;2.20;65.70;;;;;;2277758;55;21769;-64
2024/01/13 08:49:09;;;;;;;33.50;14.87;;;2.20;65.70;;;;;;2508793;55;21245;-65
2024/01/13 08:51:36;;;;;;;30.15;14.93;;;2.20;65.80;;;;;;2277234;55;21791;-66
2024/01/13 08:54:06;;;;;;;39.83;15.10;;;2.20;65.80;;;;;;2509129;54;20978;-66
2024/01/13 08:56:34;;;;;;;35.38;15.63;;;2.20;65.80;;;;;;2278470;55;20956;-67
2024/01/13 08:59:01;;;;;;;44.92;17.27;;;2.20;65.80;;;;;;2278284;55;21052;-66
2024/01/13 09:01:30;;;;;;;41.58;18.05;;;2.20;65.80;;;;;;2509338;55;21597;-66
2024/01/13 09:04:00;;;;;;;36.72;15.77;;;2.20;65.70;;;;;;2277011;56;20968;-67
2024/01/13 09:06:27;;;;;;;38.33;17.10;;;2.20;65.70;;;;;;2277161;56;20956;-67
2024/01/13 09:08:53;;;;;;;39.47;17.15;;;2.20;65.70;;;;;;2277796;55;20952;-67
2024/01/13 09:11:20;;;;;;;43.53;17.62;;;2.20;65.70;;;;;;2277596;55;20977;-65
2024/01/13 09:13:48;;;;;;;40.30;15.73;;;2.10;65.60;;;;;;2509935;55;20956;-65
2024/01/13 09:16:15;;;;;;;40.12;16.60;;;2.10;65.60;;;;;;2277476;55;20964;-65
2024/01/13 09:18:41;;;;;;;44.10;19.08;;;2.10;65.60;;;;;;2510167;55;21016;-65
2024/01/13 09:21:11;;;;;;;43.92;17.15;;;2.10;65.60;;;;;;2278930;56;21028;-65
2024/01/13 09:23:41;;;;;;;36.40;17.15;;;2.10;65.50;;;;;;2278754;56;20948;-67
2024/01/13 09:26:09;;;;;;;41.33;16.83;;;2.10;65.40;;;;;;2512144;54;21297;-65
2024/01/13 09:28:36;;;;;;;40.63;16.27;;;2.00;65.30;;;;;;2511463;54;21064;-66
2024/01/13 09:31:03;;;;;;;33.40;14.85;;;2.00;65.20;;;;;;2525095;53;21020;-66
2024/01/13 09:33:33;;;;;;;37.55;15.95;;;2.00;65.20;;;;;;2512060;54;21070;-65
2024/01/13 09:35:59;;;;;;;33.70;14.52;;;2.00;65.20;;;;;;2280834;55;20975;-66
2024/01/13 09:38:27;;;;;;;42.38;15.73;;;1.90;65.20;;;;;;2510212;54;21426;-66
2024/01/13 09:40:54;;;;;;;38.33;15.80;;;1.90;65.30;;;;;;2279727;54;20932;-66
2024/01/13 09:44:00;;;;;;;39.22;16.30;;;1.90;65.30;;;;;;2282713;55;21222;-66
2024/01/13 09:46:27;;;;;;;33.03;12.73;;;1.90;65.30;;;;;;2509784;53;20997;-66
2024/01/13 09:48:54;;;;;;;28.90;12.32;;;1.90;65.40;;;;;;2510175;54;21276;-65
2024/01/13 09:51:21;;;;;;;35.85;14.07;;;1.90;65.40;;;;;;2277465;56;21527;-67
2024/01/13 09:53:54;;;;;;;33.70;13.18;;;1.90;65.40;;;;;;2283642;54;20954;-66
2024/01/13 09:56:25;;;;;;;27.73;12.20;;;1.90;65.50;;;;;;2510395;53;21022;-64
2024/01/13 09:58:51;;;;;;;31.37;11.95;;;1.90;65.50;;;;;;2281582;56;20980;-66
2024/01/13 10:01:18;;;;;;;24.65;10.73;;;1.90;65.50;;;;;;2512220;54;20940;-64
2024/01/13 10:03:48;;;;;;;23.40;9.38;;;1.80;65.50;;;;;;2291029;54;21127;-65
2024/01/13 10:06:18;;;;;;;23.40;8.90;;;1.80;65.50;;;;;;2279314;54;21392;-65
2024/01/13 10:08:48;;;;;;;28.08;11.30;;;1.80;65.50;;;;;;2282712;55;21762;-64
2024/01/13 10:11:14;;;;;;;21.90;8.60;;;1.90;65.50;;;;;;2278589;55;20948;-66
2024/01/13 10:14:00;;;;;;;22.67;9.13;;;1.80;65.40;;;;;;2280290;55;20953;-65
2024/01/13 10:16:29;;;;;;;17.75;6.70;;;1.90;65.40;;;;;;2280094;55;20871;-66
2024/01/13 10:19:05;;;;;;;26.08;9.75;;;1.90;65.40;;;;;;2510599;54;20980;-64
2024/01/13 10:21:35;;;;;;;26.60;9.73;;;1.90;65.50;;;;;;2510265;54;20988;-65
2024/01/13 10:24:06;;;;;;;22.70;8.65;;;1.80;65.50;;;;;;2509298;55;20991;-65
2024/01/13 10:26:33;;;;;;;28.62;10.30;;;1.80;65.60;;;;;;2302649;54;21095;-65
2024/01/13 10:29:01;;;;;;;28.40;11.10;;;1.80;65.60;;;;;;2513863;54;20954;-66
2024/01/13 10:31:30;;;;;;;26.05;10.43;;;1.80;65.60;;;;;;2509794;54;21043;-65
2024/01/13 10:33:58;;;;;;;26.75;10.02;;;1.80;65.60;;;;;;2277591;55;20979;-65
2024/01/13 10:36:25;;;;;;;29.42;10.50;;;1.80;65.60;;;;;;2277543;55;21015;-67
2024/01/13 10:38:52;;;;;;;30.62;10.48;;;1.80;65.60;;;;;;2509674;54;20980;-65
2024/01/13 10:41:26;;;;;;;31.35;11.85;;;1.80;65.60;;;;;;2277386;56;21052;-67
2024/01/13 10:43:55;;;;;;;31.83;11.60;;;1.80;65.60;;;;;;2277392;55;20952;-67
2024/01/13 10:46:22;;;;;;;31.62;12.43;;;1.90;65.70;;;;;;2282825;54;21829;-66
2024/01/13 10:48:51;;;;;;;29.90;12.52;;;1.80;65.50;;;;;;2277394;55;21848;-66
2024/01/13 10:51:36;;;;;;;33.13;12.60;;;1.80;65.60;;;;;;2508404;54;21047;-67
2024/01/13 10:54:03;;;;;;;35.08;13.05;;;1.90;65.60;;;;;;2508700;55;20960;-67
2024/01/13 10:56:35;;;;;;;35.20;12.93;;;1.80;65.50;;;;;;2509323;54;21135;-67
2024/01/13 10:59:04;;;;;;;33.47;13.00;;;1.80;65.50;;;;;;2298992;54;21538;-68
2024/01/13 11:01:33;;;;;;;34.50;13.62;;;1.90;65.60;;;;;;2277839;55;20948;-66
2024/01/13 11:03:59;;;;;;;37.67;14.32;;;1.90;65.60;;;;;;2277400;56;20991;-65
2024/01/13 11:06:26;;;;;;;36.72;14.93;;;1.80;65.40;;;;;;2513688;54;21573;-67
2024/01/13 11:08:52;;;;;;;30.58;12.07;;;1.80;65.40;;;;;;2302754;55;21005;-65
2024/01/13 11:11:26;;;;;;;32.83;12.75;;;1.90;65.50;;;;;;2273077;54;21023;-67
2024/01/13 11:14:19;;;;;;;37.72;15.82;;;1.80;65.60;;;;;;2277094;55;21024;-66
2024/01/13 11:16:45;;;;;;;27.70;12.20;;;1.80;65.20;;;;;;2510404;55;20968;-66
2024/01/13 11:19:11;;;;;;;35.35;13.00;;;1.80;65.30;;;;;;2277376;55;20967;-66
2024/01/13 11:21:41;;;;;;;32.40;11.60;;;1.80;65.40;;;;;;2279661;56;21095;-66
2024/01/13 11:24:15;;;;;;;26.70;10.48;;;1.80;65.40;;;;;;2301704;55;20963;-65
2024/01/13 11:26:47;;;;;;;27.50;10.80;;;1.80;65.40;;;;;;2509902;54;21012;-65
2024/01/13 11:29:28;;;;;;;28.40;11.20;;;1.80;65.30;;;;;;2277224;56;20963;-64
2024/01/13 11:31:56;;;;;;;33.47;12.77;;;1.80;65.20;;;;;;2277160;55;21822;-66
2024/01/13 11:34:23;;;;;;;30.45;12.05;;;1.80;65.20;;;;;;2277519;55;20956;-68
2024/01/13 11:37:01;;;;;;;46.30;15.43;;;1.80;65.20;;;;;;2277150;55;20961;-67
2024/01/13 11:39:27;;;;;;;37.17;14.05;;;1.80;65.10;;;;;;2275900;55;21428;-66
2024/01/13 11:41:57;;;;;;;34.30;13.30;;;1.80;65.30;;;;;;2280747;55;21032;-67
2024/01/13 11:44:49;;;;;;;37.38;13.98;;;1.70;65.20;;;;;;2279304;54;20967;-66
2024/01/13 11:47:26;;;;;;;36.85;14.02;;;1.70;65.30;;;;;;2277033;56;21454;-65
2024/01/13 11:49:53;;;;;;;39.47;14.57;;;1.80;65.20;;;;;;2509145;54;21051;-66
2024/01/13 11:52:31;;;;;;;41.95;14.27;;;1.80;65.30;;;;;;2276977;56;20940;-66
2024/01/13 11:54:58;;;;;;;38.55;14.20;;;1.80;65.20;;;;;;2510773;54;21482;-66
2024/01/13 11:57:24;;;;;;;38.97;14.60;;;1.70;65.20;;;;;;2511047;54;20937;-66
2024/01/13 11:59:52;;;;;;;38.35;14.93;;;1.70;65.20;;;;;;2277338;55;20960;-64
2024/01/13 12:02:20;;;;;;;37.63;14.68;;;1.70;65.20;;;;;;2508502;54;20968;-67
2024/01/13 12:04:49;;;;;;;41.88;14.98;;;1.70;65.20;;;;;;2277238;56;20979;-67
2024/01/13 12:07:17;;;;;;;41.85;15.07;;;1.70;65.90;;;;;;2509843;54;21169;-64
2024/01/13 12:09:44;;;;;;;39.03;14.73;;;1.70;65.30;;;;;;2277623;55;20984;-65
2024/01/13 12:12:12;;;;;;;54.13;19.77;;;1.70;65.30;;;;;;2277907;55;21028;-66
2024/01/13 12:14:39;;;;;;;44.58;17.17;;;1.70;65.40;;;;;;2277474;55;21027;-65
2024/01/13 12:17:08;;;;;;;44.05;15.48;;;1.70;65.50;;;;;;2510034;54;20897;-66
2024/01/13 12:19:36;;;;;;;45.78;16.83;;;1.70;65.50;;;;;;2283725;55;21427;-67
2024/01/13 12:22:08;;;;;;;41.88;15.02;;;1.70;65.60;;;;;;2278038;54;21863;-65
2024/01/13 12:24:35;;;;;;;43.08;15.98;;;1.70;65.50;;;;;;2509821;54;20979;-67
2024/01/13 12:27:01;;;;;;;39.10;14.02;;;1.80;65.50;;;;;;2509287;54;21027;-67
2024/01/13 12:29:29;;;;;;;37.60;14.57;;;1.80;65.60;;;;;;2277002;55;20956;-65
2024/01/13 12:32:06;;;;;;;41.92;15.68;;;1.80;65.60;;;;;;2282448;55;21061;-66
2024/01/13 12:34:35;;;;;;;41.72;15.65;;;1.80;65.60;;;;;;2282480;55;21018;-65
2024/01/13 12:37:05;;;;;;;42.60;15.23;;;1.80;65.50;;;;;;2276575;55;20964;-66
2024/01/13 12:39:31;;;;;;;57.80;21.15;;;1.80;65.50;;;;;;2276542;55;20983;-66
2024/01/13 12:41:59;;;;;;;47.05;17.58;;;1.80;65.50;;;;;;2283339;55;21116;-65
2024/01/13 12:44:26;;;;;;;40.78;16.65;;;1.80;65.40;;;;;;2510480;53;21564;-66